Orlando Sanford International Airport
KSFB : now visible

Airfield :











YOU CAN JOIN US ON...

 
LOGIN :

Register | Disclaimer

   EN    FR    IT 

 









Legend :    VFR   Marginal VFR   IFR   Intensive IFR   Very Intensive IFR
Visi :
Ceiling :
>= 8 km
>= 3000ft
5 to 8 km
1000 to 3000 ft
1500m to 5 km
500 to 1000 ft
800 to 1500m
200 to 500 ft
< 800m
< 200 ft
Symbols :   Thunderstorms  Fog  Heavy snow  Heavy precipitations  Wind > 20 kt






- Airport Elevation : 55 ft
- IATA code : SFB


KSFB - Orlando Sanford International

CURRENT METAR :
  • 061953Z 30010KT 10SM CLR 24/10 A3013 RMK AO2 SLP202 T02390100

EXPIRED METARs :
  • 061853Z 35009KT 10SM CLR 23/11 A3014 RMK AO2 SLP205 T02280106
  • 061753Z 03006KT 10SM CLR 22/11 A3017 RMK AO2 SLP216 T02170111 10222 20111 58010
  • 061653Z 35006KT 10SM CLR 21/11 A3020 RMK AO2 SLP227 T02110106

TAF KSFB
Valid from the 06 at 18:00 until the 07 at 18:00 UTC


061738Z 0618/0718 35008KT P6SM SKC
FM062200 05008KT P6SM SKC
FM070300 03004KT P6SM SKC
FM071500 10010KT P6SM SKC
KZJX FIR / North America



MET'MAP, your aeronautical weather chart ! - Copyright ORBIFLY December 2007 - Disclaimer

ORBIFLY MET'MAP TEAM :

Programming & Development : Alexandra Zaïnal
Original concept : Baudouin d'Aumeries
Technical & hardware support : Manuel Goepfert
Assistance : Marc-Olivier Méhu




SOURCES & CREDITS :

   NOAA       Earth
Advisory